Time;durP1;ratioP1;P1;durP2;ratioP2;P2;SDS_P1;SDS_P2;PMS_P1;PMS_P2;Temp;Humidity;BMP_temperature;BMP_pressure;BME280_temperature;BME280_humidity;BME280_pressure;Samples;Min_cycle;Max_cycle;Signal;HPM_P1;HPM_P2
2022/10/25 00:02:22;;;;;;;9.17;3.80;;;14.50;1.00;;;;;;5044474;28;20323;-57
2022/10/25 00:04:48;;;;;;;9.93;3.63;;;14.50;1.00;;;;;;5044453;28;20260;-58
2022/10/25 00:07:14;;;;;;;9.00;4.00;;;14.50;1.00;;;;;;5052824;28;20857;-58
2022/10/25 00:09:40;;;;;;;5.20;3.33;;;14.40;1.00;;;;;;5044084;28;20668;-58
2022/10/25 00:12:06;;;;;;;4.17;3.50;;;14.40;1.00;;;;;;5040575;28;20459;-57
2022/10/25 00:14:32;;;;;;;5.47;3.60;;;14.30;1.00;;;;;;5044330;28;20474;-57
2022/10/25 00:16:58;;;;;;;6.67;3.50;;;14.20;1.00;;;;;;5048355;28;20457;-58
2022/10/25 00:19:24;;;;;;;4.70;2.93;;;14.20;1.00;;;;;;5045465;28;20456;-58
2022/10/25 00:21:49;;;;;;;6.20;2.90;;;14.20;1.00;;;;;;5044408;28;20188;-57
2022/10/25 00:24:15;;;;;;;8.80;3.30;;;14.10;1.00;;;;;;5038927;28;20187;-57
2022/10/25 00:26:41;;;;;;;5.33;3.70;;;14.10;1.00;;;;;;5048284;28;20184;-58
2022/10/25 00:29:08;;;;;;;6.30;3.87;;;14.00;1.00;;;;;;5044987;28;20558;-58
2022/10/25 00:31:34;;;;;;;6.97;3.33;;;14.00;1.00;;;;;;5046401;28;20198;-57
2022/10/25 00:33:59;;;;;;;8.13;3.87;;;14.00;1.00;;;;;;5040328;28;20456;-58
2022/10/25 00:36:26;;;;;;;3.20;2.90;;;13.90;1.00;;;;;;5038629;28;20300;-58
2022/10/25 00:38:52;;;;;;;6.97;3.60;;;13.90;1.00;;;;;;5044103;28;20207;-58
2022/10/25 00:41:21;;;;;;;12.00;4.10;;;14.00;1.00;;;;;;5049072;28;20453;-58
2022/10/25 00:43:55;;;;;;;9.13;3.47;;;14.00;1.00;;;;;;5041049;28;20479;-58
2022/10/25 00:46:28;;;;;;;7.33;3.70;;;14.00;1.00;;;;;;5043050;28;21467;-57
2022/10/25 00:49:09;;;;;;;3.00;2.70;;;14.00;1.00;;;;;;5046906;28;20563;-58
2022/10/25 00:51:40;;;;;;;6.27;4.83;;;13.90;1.00;;;;;;5042805;28;20557;-58
2022/10/25 00:54:09;;;;;;;8.90;5.50;;;14.00;1.00;;;;;;5047061;28;20450;-57
2022/10/25 00:56:38;;;;;;;8.03;5.30;;;14.00;1.00;;;;;;5043726;28;20447;-58
2022/10/25 00:59:06;;;;;;;12.17;8.07;;;13.90;1.00;;;;;;5040579;28;20945;-58
2022/10/25 01:01:33;;;;;;;18.13;6.50;;;14.00;1.00;;;;;;5044910;28;20919;-58
2022/10/25 01:04:01;;;;;;;6.23;3.33;;;14.00;1.00;;;;;;5044216;28;20512;-58
2022/10/25 01:06:35;;;;;;;6.03;3.93;;;14.00;1.00;;;;;;5045648;28;20824;-58
2022/10/25 01:09:03;;;;;;;7.37;4.07;;;14.00;1.00;;;;;;5043218;28;20420;-58
2022/10/25 01:11:28;;;;;;;6.63;3.80;;;14.00;1.00;;;;;;5042257;28;20597;-58
2022/10/25 01:13:55;;;;;;;8.90;5.40;;;16.30;1.00;;;;;;5040436;28;20534;-57
2022/10/25 01:16:32;;;;;;;8.83;4.37;;;13.90;1.00;;;;;;5046929;28;20853;-58
2022/10/25 01:19:29;;;;;;;5.43;3.73;;;13.90;1.00;;;;;;5042071;28;20449;-57
2022/10/25 01:21:59;;;;;;;7.37;4.30;;;13.80;1.00;;;;;;5046493;28;20453;-58
2022/10/25 01:24:34;;;;;;;3.90;3.43;;;13.80;1.00;;;;;;5040999;28;20856;-57
2022/10/25 01:27:37;;;;;;;5.50;3.83;;;13.80;1.00;;;;;;5039148;28;20495;-58
2022/10/25 01:30:05;;;;;;;5.17;3.60;;;13.80;1.00;;;;;;5047125;28;20447;-57
2022/10/25 01:32:42;;;;;;;7.17;3.73;;;13.70;1.00;;;;;;5044191;28;20939;-57
2022/10/25 01:35:28;;;;;;;5.30;3.93;;;13.70;1.00;;;;;;5046107;28;20434;-57
2022/10/25 01:38:07;;;;;;;5.97;3.87;;;13.70;1.00;;;;;;5038199;28;20497;-58
2022/10/25 01:40:45;;;;;;;5.50;3.63;;;13.60;1.00;;;;;;5042553;28;20454;-57
2022/10/25 01:43:25;;;;;;;8.60;3.90;;;13.60;1.00;;;;;;5047728;28;20445;-57
2022/10/25 01:45:59;;;;;;;5.27;3.77;;;13.60;1.00;;;;;;5041202;28;20441;-58
2022/10/25 01:48:38;;;;;;;7.53;4.30;;;13.50;1.00;;;;;;5055299;28;20737;-58
2022/10/25 01:51:16;;;;;;;7.00;4.83;;;13.50;1.00;;;;;;5047518;28;20999;-57
2022/10/25 01:53:50;;;;;;;6.57;3.60;;;13.60;1.00;;;;;;5043381;28;21018;-58
2022/10/25 01:56:25;;;;;;;6.13;3.80;;;13.50;1.00;;;;;;5044767;28;20538;-58
2022/10/25 01:59:04;;;;;;;5.40;3.57;;;13.50;1.00;;;;;;5046135;28;20468;-58
2022/10/25 02:01:46;;;;;;;5.37;3.70;;;13.60;1.00;;;;;;5043576;28;20518;-58
2022/10/25 02:04:21;;;;;;;5.33;4.17;;;13.60;1.00;;;;;;5043185;28;20964;-58
2022/10/25 02:07:15;;;;;;;4.73;3.20;;;13.70;1.00;;;;;;5042650;28;20470;-58
2022/10/25 02:10:08;;;;;;;9.00;3.27;;;13.50;1.00;;;;;;5039328;28;20977;-58
2022/10/25 02:12:45;;;;;;;3.93;3.63;;;13.50;1.00;;;;;;5034332;28;20447;-56
2022/10/25 02:15:24;;;;;;;4.83;3.33;;;13.50;1.00;;;;;;5045682;28;20822;-57
2022/10/25 02:17:57;;;;;;;6.10;3.17;;;13.40;1.00;;;;;;5039911;28;20538;-58
2022/10/25 02:20:25;;;;;;;8.70;3.60;;;13.40;1.00;;;;;;5044444;28;20488;-58
2022/10/25 02:22:52;;;;;;;5.07;3.53;;;13.40;1.00;;;;;;5042141;28;20524;-58
2022/10/25 02:25:20;;;;;;;5.87;3.90;;;13.40;1.00;;;;;;5047420;28;20483;-58
2022/10/25 02:27:46;;;;;;;4.40;3.43;;;13.40;1.00;;;;;;5046778;28;20668;-58
2022/10/25 02:30:12;;;;;;;8.23;4.03;;;13.40;1.00;;;;;;5048915;28;20807;-58
2022/10/25 02:32:37;;;;;;;5.10;3.60;;;13.40;1.00;;;;;;5046582;28;20454;-58
2022/10/25 02:35:04;;;;;;;3.93;3.10;;;13.40;1.00;;;;;;5045558;28;20228;-58
2022/10/25 02:37:31;;;;;;;3.83;3.43;;;13.40;1.00;;;;;;5046710;28;20191;-58
2022/10/25 02:39:56;;;;;;;5.53;3.77;;;13.60;1.00;;;;;;5053184;28;20478;-58
2022/10/25 02:42:22;;;;;;;4.30;3.23;;;13.60;1.00;;;;;;5038532;28;20465;-58
2022/10/25 02:44:48;;;;;;;7.83;4.00;;;13.50;1.00;;;;;;5049684;28;20639;-58
2022/10/25 02:47:13;;;;;;;5.80;3.77;;;13.60;1.00;;;;;;5046973;28;20215;-58
2022/10/25 02:49:39;;;;;;;6.50;4.00;;;13.70;1.00;;;;;;5044886;28;20247;-58
2022/10/25 02:52:04;;;;;;;7.50;3.20;;;13.70;1.00;;;;;;5045562;28;20253;-58
2022/10/25 02:54:30;;;;;;;5.63;3.80;;;13.70;1.00;;;;;;5046844;28;20190;-58
2022/10/25 02:56:55;;;;;;;7.63;3.40;;;13.70;1.00;;;;;;5047943;28;20528;-58
2022/10/25 02:59:21;;;;;;;6.40;3.97;;;13.80;1.00;;;;;;5045545;28;20664;-58
2022/10/25 03:01:47;;;;;;;4.87;3.37;;;13.80;1.00;;;;;;5046974;28;20590;-58
2022/10/25 03:04:12;;;;;;;5.07;3.80;;;13.90;1.00;;;;;;5046816;28;20867;-58
2022/10/25 03:06:38;;;;;;;4.10;2.90;;;14.10;1.00;;;;;;5047854;28;20428;-60
2022/10/25 03:09:04;;;;;;;5.60;3.40;;;14.10;1.00;;;;;;5048685;28;20233;-58
2022/10/25 03:11:29;;;;;;;3.60;3.00;;;14.30;1.00;;;;;;5040088;28;20687;-58
2022/10/25 03:13:55;;;;;;;5.80;3.87;;;14.30;1.00;;;;;;5045304;28;20453;-57
2022/10/25 03:16:20;;;;;;;7.00;3.30;;;14.20;1.00;;;;;;5049110;28;20277;-58
2022/10/25 03:18:46;;;;;;;3.70;2.70;;;14.20;1.00;;;;;;5048601;28;20222;-58
2022/10/25 03:21:12;;;;;;;5.73;3.20;;;14.40;1.00;;;;;;5048807;28;20188;-58
2022/10/25 03:23:37;;;;;;;7.23;3.90;;;14.40;1.00;;;;;;5047786;28;20249;-59
2022/10/25 03:26:03;;;;;;;9.30;2.90;;;14.40;1.00;;;;;;5042677;28;20623;-58
2022/10/25 03:28:30;;;;;;;3.70;3.00;;;14.40;1.00;;;;;;5044723;28;20243;-58
2022/10/25 03:30:56;;;;;;;3.90;3.33;;;14.50;1.00;;;;;;5056304;28;20427;-59
2022/10/25 03:33:23;;;;;;;4.90;3.20;;;14.40;1.00;;;;;;5038903;28;20435;-58
2022/10/25 03:35:50;;;;;;;5.70;3.90;;;14.40;1.00;;;;;;5050561;28;20549;-59
2022/10/25 03:38:15;;;;;;;7.13;3.30;;;14.30;1.00;;;;;;5047425;28;20465;-58
2022/10/25 03:40:41;;;;;;;4.83;3.00;;;14.50;1.00;;;;;;5049072;28;21081;-59
2022/10/25 03:43:07;;;;;;;5.47;2.63;;;14.60;1.00;;;;;;5043094;28;20190;-59
2022/10/25 03:45:32;;;;;;;7.07;2.93;;;14.60;1.00;;;;;;5041415;28;21209;-59
2022/10/25 03:47:58;;;;;;;5.03;2.43;;;14.80;1.00;;;;;;5046553;28;20219;-58
2022/10/25 03:50:24;;;;;;;4.47;2.50;;;14.90;1.00;;;;;;5048564;28;20220;-59
2022/10/25 03:52:49;;;;;;;7.03;2.83;;;15.00;1.00;;;;;;5046166;28;20193;-58
2022/10/25 03:55:15;;;;;;;6.00;3.30;;;15.10;1.00;;;;;;5046868;28;20281;-59
2022/10/25 03:57:41;;;;;;;2.97;2.30;;;15.10;1.00;;;;;;5046257;28;20729;-58
2022/10/25 04:00:07;;;;;;;8.33;3.43;;;15.20;1.00;;;;;;5044971;28;20224;-60
2022/10/25 04:02:33;;;;;;;3.20;2.70;;;15.30;1.00;;;;;;5046812;28;20195;-59
2022/10/25 04:04:58;;;;;;;4.47;2.30;;;15.30;1.00;;;;;;5042994;28;20479;-58
2022/10/25 04:07:24;;;;;;;4.00;2.63;;;15.30;1.00;;;;;;5047771;28;20566;-59
2022/10/25 04:09:49;;;;;;;3.80;2.53;;;15.30;1.00;;;;;;5045833;28;20707;-59
2022/10/25 04:12:15;;;;;;;4.93;2.23;;;15.30;1.00;;;;;;5047051;28;20206;-58
2022/10/25 04:14:40;;;;;;;4.40;2.50;;;15.30;1.00;;;;;;5039420;28;20256;-59
2022/10/25 04:17:06;;;;;;;4.17;2.73;;;15.30;1.00;;;;;;5047057;28;20268;-58
2022/10/25 04:19:31;;;;;;;3.50;2.60;;;15.30;1.00;;;;;;5044309;28;20235;-58
2022/10/25 04:21:57;;;;;;;4.93;2.00;;;15.40;1.00;;;;;;5051755;28;20681;-59
2022/10/25 04:24:23;;;;;;;4.70;2.50;;;15.40;1.00;;;;;;5054842;28;20606;-59
2022/10/25 04:26:48;;;;;;;3.87;2.10;;;15.20;1.00;;;;;;5042236;28;20675;-60
2022/10/25 04:29:16;;;;;;;2.73;1.90;;;15.40;1.00;;;;;;5043809;28;20191;-59
2022/10/25 04:31:41;;;;;;;2.40;1.93;;;15.30;1.00;;;;;;5046148;28;20218;-57
2022/10/25 04:34:07;;;;;;;4.60;1.83;;;15.50;1.00;;;;;;5048088;28;20550;-57
2022/10/25 04:36:33;;;;;;;2.97;2.03;;;15.50;1.00;;;;;;5038698;28;20286;-58
2022/10/25 04:38:58;;;;;;;4.33;2.20;;;15.50;1.00;;;;;;5045222;28;21220;-58
2022/10/25 04:41:24;;;;;;;3.37;2.43;;;15.60;1.00;;;;;;5043310;28;20679;-58
2022/10/25 04:43:51;;;;;;;6.30;1.90;;;15.80;1.00;;;;;;5044098;28;20254;-58
2022/10/25 04:46:17;;;;;;;5.30;2.00;;;15.90;1.00;;;;;;5044859;28;20199;-58
2022/10/25 04:48:43;;;;;;;3.10;2.10;;;15.90;1.00;;;;;;5039771;28;20826;-58
2022/10/25 04:51:10;;;;;;;4.27;2.10;;;15.70;1.00;;;;;;5049095;28;20422;-58
2022/10/25 04:53:36;;;;;;;7.03;2.07;;;15.70;1.00;;;;;;5045406;28;21673;-59
2022/10/25 04:56:11;;;;;;;5.10;3.53;;;15.70;1.00;;;;;;5054219;28;20445;-58
2022/10/25 04:58:37;;;;;;;2.70;2.30;;;15.50;1.00;;;;;;5043043;28;20885;-58
2022/10/25 05:01:09;;;;;;;2.00;1.60;;;15.60;1.00;;;;;;5042822;28;20446;-58
2022/10/25 05:03:35;;;;;;;7.50;1.90;;;15.60;1.00;;;;;;5048878;28;20689;-58
2022/10/25 05:06:16;;;;;;;3.53;2.13;;;15.50;1.00;;;;;;5045728;28;20423;-59
2022/10/25 05:08:44;;;;;;;3.67;2.10;;;15.30;1.00;;;;;;5045559;28;20449;-58
2022/10/25 05:11:11;;;;;;;8.83;2.57;;;15.30;1.00;;;;;;5044045;28;20511;-58
2022/10/25 05:13:38;;;;;;;4.20;2.33;;;15.10;1.00;;;;;;5048260;28;20421;-58
2022/10/25 05:16:04;;;;;;;6.53;2.47;;;15.10;1.00;;;;;;5053142;28;20444;-58
2022/10/25 05:18:31;;;;;;;3.67;1.63;;;14.90;1.00;;;;;;5043012;28;20508;-58
2022/10/25 05:21:04;;;;;;;2.80;1.90;;;14.90;1.00;;;;;;5044872;28;20427;-57
2022/10/25 05:23:30;;;;;;;3.10;2.10;;;14.80;1.00;;;;;;5057845;28;21049;-58
2022/10/25 05:26:11;;;;;;;3.83;2.30;;;14.80;1.00;;;;;;5043011;28;20470;-58
2022/10/25 05:28:38;;;;;;;4.97;2.20;;;14.70;1.00;;;;;;5044483;28;20479;-59
2022/10/25 05:31:18;;;;;;;3.43;1.67;;;14.60;1.00;;;;;;5042725;28;20457;-59
2022/10/25 05:33:44;;;;;;;4.00;1.83;;;14.60;1.00;;;;;;5044800;28;20418;-58
2022/10/25 05:36:11;;;;;;;3.80;2.53;;;14.60;1.00;;;;;;5046684;28;20429;-59
2022/10/25 05:38:37;;;;;;;4.97;2.60;;;14.60;1.00;;;;;;5041962;28;20459;-58
2022/10/25 05:41:02;;;;;;;2.17;1.80;;;14.50;1.00;;;;;;5054446;28;20509;-58
2022/10/25 05:43:28;;;;;;;11.53;2.90;;;14.10;1.00;;;;;;5040106;28;20200;-58
2022/10/25 05:46:10;;;;;;;2.90;1.90;;;14.40;1.00;;;;;;5052425;28;20196;-57
2022/10/25 05:48:37;;;;;;;4.93;2.00;;;14.40;1.00;;;;;;5035102;28;20297;-58
2022/10/25 05:51:15;;;;;;;2.73;2.53;;;14.30;1.00;;;;;;5042122;28;21156;-58
2022/10/25 05:53:46;;;;;;;7.97;2.30;;;14.40;1.00;;;;;;5044450;28;20930;-58
2022/10/25 05:56:12;;;;;;;3.13;2.23;;;14.40;1.00;;;;;;5043092;28;20439;-59
2022/10/25 05:58:38;;;;;;;2.83;2.30;;;14.50;1.00;;;;;;5043725;28;20442;-58
2022/10/25 06:01:04;;;;;;;14.20;3.33;;;14.50;1.00;;;;;;5044869;28;20559;-58
2022/10/25 06:03:29;;;;;;;4.63;2.83;;;14.50;1.00;;;;;;5045063;28;20193;-58
2022/10/25 06:05:59;;;;;;;15.07;10.50;;;14.50;1.00;;;;;;5049818;28;20193;-58
2022/10/25 06:08:25;;;;;;;7.90;5.10;;;14.50;1.00;;;;;;5042579;28;20251;-59
2022/10/25 06:10:51;;;;;;;5.93;4.13;;;14.50;1.00;;;;;;5045289;28;21114;-58
2022/10/25 06:13:16;;;;;;;3.17;2.87;;;14.50;1.00;;;;;;5046557;28;20211;-59
2022/10/25 06:15:42;;;;;;;2.50;1.90;;;14.40;1.00;;;;;;5044778;28;20271;-59
2022/10/25 06:18:07;;;;;;;6.60;2.50;;;14.40;1.00;;;;;;5045784;28;20183;-58
2022/10/25 06:20:33;;;;;;;5.60;2.83;;;;;;;;;;5049249;28;20191;-58
2022/10/25 06:22:59;;;;;;;3.10;1.80;;;;;;;;;;5048238;28;20206;-59
2022/10/25 06:25:25;;;;;;;3.17;2.07;;;14.60;1.00;;;;;;5051105;28;20426;-57
2022/10/25 06:27:51;;;;;;;4.13;2.33;;;14.60;1.00;;;;;;5048475;28;20465;-57
2022/10/25 06:30:16;;;;;;;8.23;3.33;;;15.00;1.00;;;;;;5048322;28;20188;-57
2022/10/25 06:32:42;;;;;;;2.77;1.97;;;15.00;1.00;;;;;;5046978;28;20615;-58
2022/10/25 06:35:08;;;;;;;6.37;2.50;;;15.10;1.00;;;;;;5053915;28;20290;-57
2022/10/25 06:37:33;;;;;;;7.23;2.97;;;15.20;1.00;;;;;;5051131;28;20217;-59
2022/10/25 06:39:59;;;;;;;3.23;2.70;;;15.20;1.00;;;;;;5048525;28;20246;-58
2022/10/25 06:42:24;;;;;;;7.40;2.40;;;15.30;1.00;;;;;;5041750;28;20200;-58
2022/10/25 06:44:50;;;;;;;4.57;2.20;;;15.40;1.00;;;;;;5042139;28;20242;-58
2022/10/25 06:47:15;;;;;;;5.97;3.40;;;15.50;1.00;;;;;;5040414;28;20212;-58
2022/10/25 06:49:41;;;;;;;3.60;2.60;;;15.50;1.00;;;;;;5044096;28;20670;-58
2022/10/25 06:52:06;;;;;;;4.40;2.53;;;15.60;1.00;;;;;;5036288;28;20204;-59
2022/10/25 06:54:32;;;;;;;4.17;2.40;;;15.60;1.00;;;;;;5041606;28;20612;-59
2022/10/25 06:56:58;;;;;;;2.90;2.30;;;15.60;1.00;;;;;;5050756;28;20265;-58
2022/10/25 06:59:23;;;;;;;6.00;3.10;;;15.70;1.00;;;;;;5047294;28;20187;-59
2022/10/25 07:01:49;;;;;;;5.40;2.67;;;15.70;1.00;;;;;;5046169;28;20195;-59
2022/10/25 07:04:15;;;;;;;6.80;2.30;;;15.80;1.00;;;;;;5045907;28;20220;-58
2022/10/25 07:06:41;;;;;;;6.33;2.30;;;15.90;1.00;;;;;;5046967;28;20203;-58
2022/10/25 07:09:08;;;;;;;6.80;2.57;;;16.00;1.00;;;;;;5046726;28;20493;-58
2022/10/25 07:11:34;;;;;;;2.97;1.87;;;16.10;1.00;;;;;;5041186;28;20208;-58
2022/10/25 07:14:03;;;;;;;7.60;2.23;;;16.20;1.00;;;;;;5044322;28;20453;-58
2022/10/25 07:16:28;;;;;;;2.37;2.00;;;16.30;1.00;;;;;;5047474;28;20206;-58
2022/10/25 07:18:59;;;;;;;5.93;3.00;;;16.50;1.00;;;;;;5048975;28;20453;-59
2022/10/25 07:21:25;;;;;;;4.87;2.17;;;16.60;1.00;;;;;;5042227;28;20220;-57
2022/10/25 07:23:51;;;;;;;2.33;1.40;;;16.40;1.00;;;;;;5044227;28;20423;-59
2022/10/25 07:26:23;;;;;;;6.00;1.60;;;16.70;1.00;;;;;;5042052;28;21035;-59
2022/10/25 07:28:50;;;;;;;3.97;1.33;;;16.70;1.00;;;;;;5058514;28;20558;-59
2022/10/25 07:31:21;;;;;;;3.40;1.27;;;17.10;1.00;;;;;;5045790;28;20459;-59
2022/10/25 07:33:48;;;;;;;1.90;1.20;;;17.10;1.00;;;;;;5044243;28;20543;-59
2022/10/25 07:36:13;;;;;;;5.60;2.20;;;17.20;1.00;;;;;;5044250;28;20480;-60
2022/10/25 07:38:39;;;;;;;7.67;1.80;;;17.40;1.00;;;;;;5043885;28;20462;-59
2022/10/25 07:41:06;;;;;;;6.87;1.57;;;17.60;1.00;;;;;;5045220;28;20186;-58
2022/10/25 07:43:31;;;;;;;6.13;2.80;;;17.60;1.00;;;;;;5043841;28;20432;-58
2022/10/25 07:45:57;;;;;;;6.10;1.80;;;17.70;1.00;;;;;;5045175;28;20448;-58
2022/10/25 07:48:23;;;;;;;2.20;1.43;;;17.80;1.00;;;;;;5047291;28;20202;-56
2022/10/25 07:50:48;;;;;;;6.13;1.40;;;17.80;1.00;;;;;;5052269;28;20199;-58
2022/10/25 07:53:14;;;;;;;4.73;1.27;;;17.90;1.00;;;;;;5052563;28;20216;-58
2022/10/25 07:55:39;;;;;;;3.30;1.20;;;17.80;1.00;;;;;;5046535;28;20277;-58
2022/10/25 07:58:10;;;;;;;3.53;1.73;;;17.60;1.00;;;;;;5043494;28;20195;-58
2022/10/25 08:00:36;;;;;;;3.23;1.20;;;17.50;1.00;;;;;;5044868;28;20671;-58
2022/10/25 08:03:02;;;;;;;2.77;1.03;;;17.50;1.00;;;;;;5042522;28;20481;-59
2022/10/25 08:05:28;;;;;;;1.70;1.17;;;17.50;1.00;;;;;;5048581;28;20194;-60
2022/10/25 08:07:54;;;;;;;2.90;1.20;;;17.50;1.00;;;;;;5046661;28;20444;-58
2022/10/25 08:10:20;;;;;;;4.80;1.57;;;17.70;1.00;;;;;;5049625;28;20714;-57
2022/10/25 08:12:47;;;;;;;2.80;1.20;;;17.70;1.00;;;;;;5046641;28;20191;-57
2022/10/25 08:15:13;;;;;;;7.67;2.20;;;17.80;1.00;;;;;;5049977;28;20426;-58
2022/10/25 08:17:39;;;;;;;1.73;1.00;;;17.90;1.00;;;;;;5062018;28;20443;-58
2022/10/25 08:20:05;;;;;;;3.00;1.30;;;17.90;1.00;;;;;;5063952;28;20202;-58
2022/10/25 08:22:31;;;;;;;4.43;1.23;;;17.90;1.00;;;;;;5062118;28;20712;-58
2022/10/25 08:24:56;;;;;;;3.60;0.93;;;18.10;1.00;;;;;;5054045;28;20531;-60
2022/10/25 08:27:22;;;;;;;1.73;1.00;;;18.20;1.00;;;;;;5058274;28;20671;-58
2022/10/25 08:29:47;;;;;;;3.77;1.30;;;18.30;1.00;;;;;;5062465;28;20540;-59
2022/10/25 08:32:13;;;;;;;6.23;1.80;;;18.60;1.00;;;;;;5055757;28;20213;-59
2022/10/25 08:34:39;;;;;;;2.30;0.80;;;18.80;1.00;;;;;;5061368;28;20226;-61
2022/10/25 08:37:07;;;;;;;3.00;1.60;;;18.70;1.00;;;;;;5041130;28;20214;-59
2022/10/25 08:39:32;;;;;;;4.70;1.30;;;18.50;1.00;;;;;;5064471;28;20272;-58
2022/10/25 08:42:00;;;;;;;4.23;1.10;;;18.40;1.00;;;;;;5048248;28;20507;-59
2022/10/25 08:44:37;;;;;;;4.67;1.13;;;18.30;1.00;;;;;;5051433;28;20230;-58
2022/10/25 08:47:16;;;;;;;4.30;1.30;;;18.30;1.00;;;;;;5045661;28;20773;-58
2022/10/25 08:50:09;;;;;;;4.30;1.40;;;18.20;1.00;;;;;;5046955;28;20953;-60
2022/10/25 08:52:43;;;;;;;3.60;1.43;;;18.10;1.00;;;;;;5047395;28;20521;-59
2022/10/25 08:55:18;;;;;;;3.07;1.37;;;18.00;1.00;;;;;;5048431;28;20448;-59
2022/10/25 08:57:46;;;;;;;4.40;1.30;;;18.10;1.00;;;;;;5051365;28;21146;-60
2022/10/25 09:00:18;;;;;;;2.43;1.33;;;18.40;1.00;;;;;;5044814;28;20627;-59
2022/10/25 09:02:57;;;;;;;5.77;1.67;;;17.90;1.00;;;;;;5050807;28;20484;-61
2022/10/25 09:05:25;;;;;;;3.00;1.53;;;18.30;1.00;;;;;;5047881;28;20532;-60
2022/10/25 09:08:11;;;;;;;4.50;1.23;;;18.50;1.00;;;;;;5058868;28;20683;-60
2022/10/25 09:11:01;;;;;;;2.37;1.30;;;18.90;1.00;;;;;;5059281;28;20497;-60
2022/10/25 09:13:33;;;;;;;6.10;1.33;;;18.90;1.00;;;;;;5052912;28;21183;-58
2022/10/25 09:16:09;;;;;;;6.93;2.03;;;18.90;1.00;;;;;;5044678;28;20803;-59
2022/10/25 09:18:55;;;;;;;6.70;1.97;;;19.30;1.00;;;;;;5046810;28;20452;-58
2022/10/25 09:21:39;;;;;;;1.70;1.17;;;20.40;1.00;;;;;;5044036;28;20434;-60
2022/10/25 09:24:26;;;;;;;4.50;1.43;;;20.50;1.00;;;;;;5043809;28;20463;-59
2022/10/25 09:27:10;;;;;;;2.70;2.00;;;20.70;1.00;;;;;;5047116;28;20976;-59
2022/10/25 09:29:45;;;;;;;3.23;1.13;;;20.40;1.00;;;;;;5043444;28;20470;-57
2022/10/25 09:32:20;;;;;;;3.17;1.37;;;19.90;1.00;;;;;;5049298;28;20457;-60
2022/10/25 09:34:47;;;;;;;4.23;1.30;;;19.40;1.00;;;;;;5046948;28;20414;-60
2022/10/25 09:37:37;;;;;;;2.70;1.10;;;19.10;1.00;;;;;;5051876;28;20474;-59
2022/10/25 09:40:08;;;;;;;3.23;1.17;;;19.10;1.00;;;;;;5048524;28;20451;-60
2022/10/25 09:42:38;;;;;;;3.60;1.27;;;19.10;1.00;;;;;;5044990;28;20932;-62
2022/10/25 09:45:23;;;;;;;3.73;1.30;;;19.10;1.00;;;;;;5052275;28;20526;-60
2022/10/25 09:47:54;;;;;;;4.73;1.07;;;19.30;1.00;;;;;;5057408;28;20440;-59
2022/10/25 09:50:28;;;;;;;2.47;1.30;;;19.10;1.00;;;;;;5049780;28;20504;-59
2022/10/25 09:53:14;;;;;;;7.40;1.20;;;19.00;1.00;;;;;;5044963;28;20424;-59
2022/10/25 09:55:46;;;;;;;4.70;1.60;;;19.00;1.00;;;;;;5045414;28;20419;-66
2022/10/25 09:58:19;;;;;;;4.23;1.10;;;18.90;1.00;;;;;;5044928;28;20911;-67
2022/10/25 10:00:44;;;;;;;3.47;1.07;;;18.60;1.00;;;;;;5046484;28;20488;-65
2022/10/25 10:03:11;;;;;;;3.50;1.20;;;18.40;1.00;;;;;;5049446;28;20448;-67
2022/10/25 10:05:45;;;;;;;3.43;1.17;;;18.40;1.00;;;;;;5050324;28;20195;-67
2022/10/25 10:08:11;;;;;;;1.87;1.07;;;18.30;1.00;;;;;;5052612;28;20551;-66
2022/10/25 10:10:40;;;;;;;5.50;1.50;;;18.40;1.00;;;;;;5045139;28;20536;-66
2022/10/25 10:13:36;;;;;;;7.30;1.50;;;18.40;1.00;;;;;;5052493;28;20203;-66
2022/10/25 10:16:05;;;;;;;3.30;1.13;;;18.50;1.00;;;;;;5051341;28;21120;-66
2022/10/25 10:18:32;;;;;;;2.83;1.10;;;18.40;1.00;;;;;;5061778;28;20498;-65
2022/10/25 10:21:11;;;;;;;5.30;1.17;;;18.30;1.00;;;;;;5050108;28;20424;-65
2022/10/25 10:23:42;;;;;;;2.77;1.50;;;18.30;1.00;;;;;;5066389;28;20501;-68
2022/10/25 10:26:30;;;;;;;2.17;1.07;;;18.30;1.00;;;;;;5053021;28;20421;-67
2022/10/25 10:29:07;;;;;;;3.70;1.30;;;18.40;1.00;;;;;;5049360;28;20466;-66
2022/10/25 10:31:39;;;;;;;6.10;1.10;;;18.50;1.00;;;;;;5050098;28;20415;-66
2022/10/25 10:34:21;;;;;;;2.00;1.07;;;18.50;1.00;;;;;;5046846;28;20978;-67
2022/10/25 10:37:05;;;;;;;4.93;1.23;;;18.50;1.00;;;;;;5042795;28;20456;-67
2022/10/25 10:39:30;;;;;;;3.73;1.50;;;18.50;1.00;;;;;;5046139;28;20461;-66
2022/10/25 10:42:12;;;;;;;3.83;1.73;;;18.50;1.00;;;;;;5045726;28;20441;-68
2022/10/25 10:44:38;;;;;;;5.80;1.30;;;18.50;1.00;;;;;;5044450;28;20584;-69
2022/10/25 10:47:18;;;;;;;2.50;1.30;;;23.10;1.00;;;;;;5048027;28;20450;-67
2022/10/25 10:49:44;;;;;;;2.93;1.30;;;18.50;1.00;;;;;;5048984;28;20284;-68
2022/10/25 10:52:29;;;;;;;1.93;1.43;;;18.60;1.00;;;;;;5048235;28;20524;-68
2022/10/25 10:54:56;;;;;;;3.23;1.33;;;18.40;1.00;;;;;;5050106;28;20428;-67
2022/10/25 10:57:31;;;;;;;3.50;1.60;;;18.30;1.00;;;;;;5047846;28;20455;-66
2022/10/25 10:59:58;;;;;;;1.30;1.20;;;18.40;1.00;;;;;;5049497;28;20869;-69
2022/10/25 11:02:41;;;;;;;5.47;1.50;;;19.50;1.00;;;;;;5048215;28;20444;-66
2022/10/25 11:05:26;;;;;;;3.33;1.17;;;18.70;1.00;;;;;;5050032;28;20426;-66
2022/10/25 11:08:20;;;;;;;5.67;1.70;;;18.70;1.00;;;;;;5050273;28;20442;-69
2022/10/25 11:10:46;;;;;;;2.80;1.30;;;18.60;1.00;;;;;;5043245;28;20538;-68
2022/10/25 11:13:13;;;;;;;5.97;1.30;;;18.50;1.00;;;;;;5053947;28;20554;-68
2022/10/25 11:16:00;;;;;;;3.70;1.60;;;18.40;1.00;;;;;;5044610;28;20202;-67
2022/10/25 11:19:15;;;;;;;3.23;1.30;;;18.40;1.00;;;;;;5047947;28;20430;-68
2022/10/25 11:22:08;;;;;;;1.93;1.30;;;18.40;1.00;;;;;;5043348;28;20471;-66
2022/10/25 11:25:01;;;;;;;8.23;2.73;;;18.50;1.00;;;;;;5050434;28;20473;-66
2022/10/25 11:27:41;;;;;;;3.20;1.10;;;18.70;1.00;;;;;;5050204;28;20469;-66
2022/10/25 11:30:14;;;;;;;3.43;1.27;;;18.90;1.00;;;;;;5046623;28;20426;-66
2022/10/25 11:33:15;;;;;;;3.20;1.30;;;19.10;1.00;;;;;;5050839;28;20421;-66
2022/10/25 11:35:50;;;;;;;3.43;1.30;;;19.20;1.00;;;;;;5044831;28;20457;-65
2022/10/25 11:38:48;;;;;;;2.97;1.10;;;19.40;1.00;;;;;;5054091;28;20463;-65
2022/10/25 11:41:26;;;;;;;4.80;1.73;;;19.80;1.00;;;;;;5047376;28;20490;-65
2022/10/25 11:44:10;;;;;;;3.37;1.10;;;19.80;1.00;;;;;;5043700;28;20477;-66
2022/10/25 11:47:05;;;;;;;3.97;1.47;;;19.50;1.00;;;;;;5044400;28;20451;-65
2022/10/25 11:49:54;;;;;;;8.50;1.60;;;19.50;1.00;;;;;;5048510;28;20523;-65
2022/10/25 11:53:04;;;;;;;3.50;1.53;;;19.60;1.00;;;;;;5049595;28;20417;-67
2022/10/25 11:55:36;;;;;;;1.20;0.83;;;19.50;1.00;;;;;;5044990;28;20764;-67
2022/10/25 11:58:03;;;;;;;4.20;1.13;;;19.50;1.00;;;;;;5042911;28;20454;-67
2022/10/25 12:01:06;;;;;;;2.27;0.80;;;19.60;1.00;;;;;;5048996;28;20509;-67
2022/10/25 12:03:50;;;;;;;2.70;1.27;;;19.50;1.00;;;;;;5047772;28;20972;-67
2022/10/25 12:06:21;;;;;;;3.20;1.47;;;19.40;1.00;;;;;;5048588;28;20481;-61
2022/10/25 12:09:22;;;;;;;3.17;0.90;;;19.30;1.00;;;;;;5045207;28;20442;-60
2022/10/25 12:11:58;;;;;;;5.60;0.90;;;20.00;1.00;;;;;;5058143;28;20928;-60
2022/10/25 12:14:34;;;;;;;5.50;1.73;;;19.20;1.00;;;;;;5048305;28;21052;-61
2022/10/25 12:17:02;;;;;;;2.93;1.80;;;19.20;1.00;;;;;;5049814;28;20469;-61
2022/10/25 12:19:31;;;;;;;2.10;0.97;;;19.40;1.00;;;;;;5047573;28;21124;-59
2022/10/25 12:22:00;;;;;;;2.40;1.13;;;19.40;1.00;;;;;;5043645;28;20964;-60
2022/10/25 12:24:40;;;;;;;6.13;1.50;;;19.40;1.00;;;;;;5046839;28;20455;-61
2022/10/25 12:27:07;;;;;;;3.00;1.00;;;19.70;1.00;;;;;;5064544;28;20409;-60
2022/10/25 12:29:37;;;;;;;2.87;1.17;;;19.80;1.00;;;;;;5047446;28;20501;-64
2022/10/25 12:32:17;;;;;;;2.87;1.23;;;20.00;1.00;;;;;;5045573;28;20451;-65
2022/10/25 12:34:51;;;;;;;4.93;1.13;;;20.00;1.00;;;;;;5040802;28;20418;-63
2022/10/25 12:37:17;;;;;;;3.77;1.13;;;19.80;1.00;;;;;;5041109;28;20921;-64
2022/10/25 12:39:44;;;;;;;4.73;1.53;;;19.50;1.00;;;;;;5049038;28;20478;-62
2022/10/25 12:42:18;;;;;;;2.97;1.43;;;19.40;1.00;;;;;;5044775;28;20200;-63
2022/10/25 12:44:58;;;;;;;2.13;1.40;;;19.40;1.00;;;;;;5045541;28;20458;-63
2022/10/25 12:47:56;;;;;;;2.00;1.00;;;19.40;1.00;;;;;;5055134;28;20934;-59
2022/10/25 12:50:44;;;;;;;2.33;1.00;;;19.50;1.00;;;;;;5048737;28;20965;-60
2022/10/25 12:53:15;;;;;;;4.03;1.27;;;19.60;1.00;;;;;;5047591;28;21094;-60
2022/10/25 12:56:02;;;;;;;4.03;1.10;;;19.60;1.00;;;;;;5049122;28;20426;-60
2022/10/25 12:59:02;;;;;;;2.93;1.37;;;19.60;1.00;;;;;;5046471;28;20439;-60
2022/10/25 13:01:49;;;;;;;3.10;1.40;;;19.70;1.00;;;;;;5043695;28;20483;-60
2022/10/25 13:04:27;;;;;;;2.00;1.20;;;19.50;1.00;;;;;;5045862;28;20454;-59
2022/10/25 13:06:53;;;;;;;4.80;1.30;;;19.30;1.00;;;;;;5042932;28;20485;-58
2022/10/25 13:09:21;;;;;;;2.30;1.10;;;19.00;1.00;;;;;;5042202;28;20484;-59
2022/10/25 13:12:03;;;;;;;7.20;1.63;;;18.90;1.00;;;;;;5046296;28;21169;-58
2022/10/25 13:14:41;;;;;;;2.93;1.00;;;18.80;1.00;;;;;;5045194;28;20473;-61
2022/10/25 13:17:39;;;;;;;3.50;1.37;;;18.90;1.00;;;;;;5046631;28;20440;-60
2022/10/25 13:20:21;;;;;;;2.47;1.27;;;18.80;1.00;;;;;;5046179;28;20419;-60
2022/10/25 13:22:47;;;;;;;2.77;1.13;;;18.90;1.00;;;;;;5045280;28;20444;-59